sensor_id;sensor_type;location;lat;lon;timestamp;P1;durP1;ratioP1;P2;durP2;ratioP2
65323;SDS011;51937;48.364;11.378;2022-08-20T00:00:12;9.13;;;6.68;;
65323;SDS011;51937;48.364;11.378;2022-08-20T00:02:45;8.70;;;6.60;;
65323;SDS011;51937;48.364;11.378;2022-08-20T00:05:14;8.48;;;6.80;;
65323;SDS011;51937;48.364;11.378;2022-08-20T00:07:44;10.73;;;7.20;;
65323;SDS011;51937;48.364;11.378;2022-08-20T00:10:09;7.93;;;7.10;;
65323;SDS011;51937;48.364;11.378;2022-08-20T00:12:35;8.65;;;6.82;;
65323;SDS011;51937;48.364;11.378;2022-08-20T00:15:02;9.77;;;8.02;;
65323;SDS011;51937;48.364;11.378;2022-08-20T00:17:29;10.13;;;7.70;;
65323;SDS011;51937;48.364;11.378;2022-08-20T00:20:02;8.50;;;7.22;;
65323;SDS011;51937;48.364;11.378;2022-08-20T00:22:32;11.82;;;8.02;;
65323;SDS011;51937;48.364;11.378;2022-08-20T00:24:58;9.52;;;7.15;;
65323;SDS011;51937;48.364;11.378;2022-08-20T00:27:23;9.70;;;7.50;;
65323;SDS011;51937;48.364;11.378;2022-08-20T00:29:48;10.38;;;7.18;;
65323;SDS011;51937;48.364;11.378;2022-08-20T00:32:14;10.20;;;7.07;;
65323;SDS011;51937;48.364;11.378;2022-08-20T00:34:39;11.80;;;7.40;;
65323;SDS011;51937;48.364;11.378;2022-08-20T00:37:06;9.93;;;8.20;;
65323;SDS011;51937;48.364;11.378;2022-08-20T00:39:32;10.02;;;7.70;;
65323;SDS011;51937;48.364;11.378;2022-08-20T00:41:57;11.45;;;8.02;;
65323;SDS011;51937;48.364;11.378;2022-08-20T00:44:23;13.43;;;8.05;;
65323;SDS011;51937;48.364;11.378;2022-08-20T00:46:49;9.85;;;7.82;;
65323;SDS011;51937;48.364;11.378;2022-08-20T00:49:20;9.60;;;7.88;;
65323;SDS011;51937;48.364;11.378;2022-08-20T00:51:59;10.95;;;8.00;;
65323;SDS011;51937;48.364;11.378;2022-08-20T00:54:34;12.30;;;8.35;;
65323;SDS011;51937;48.364;11.378;2022-08-20T00:57:08;11.88;;;8.48;;
65323;SDS011;51937;48.364;11.378;2022-08-20T00:59:43;11.02;;;8.48;;
65323;SDS011;51937;48.364;11.378;2022-08-20T01:02:11;9.77;;;7.82;;
65323;SDS011;51937;48.364;11.378;2022-08-20T01:04:38;10.07;;;7.75;;
65323;SDS011;51937;48.364;11.378;2022-08-20T01:07:04;9.57;;;7.95;;
65323;SDS011;51937;48.364;11.378;2022-08-20T01:09:30;9.75;;;7.82;;
65323;SDS011;51937;48.364;11.378;2022-08-20T01:11:56;10.75;;;7.20;;
65323;SDS011;51937;48.364;11.378;2022-08-20T01:14:22;9.52;;;7.60;;
65323;SDS011;51937;48.364;11.378;2022-08-20T01:17:01;9.80;;;6.95;;
65323;SDS011;51937;48.364;11.378;2022-08-20T01:19:30;10.45;;;7.38;;
65323;SDS011;51937;48.364;11.378;2022-08-20T01:21:58;10.48;;;8.10;;
65323;SDS011;51937;48.364;11.378;2022-08-20T01:24:26;11.18;;;8.35;;
65323;SDS011;51937;48.364;11.378;2022-08-20T01:26:58;9.65;;;7.63;;
65323;SDS011;51937;48.364;11.378;2022-08-20T01:29:28;10.68;;;8.25;;
65323;SDS011;51937;48.364;11.378;2022-08-20T01:32:03;13.30;;;8.13;;
65323;SDS011;51937;48.364;11.378;2022-08-20T01:34:30;11.65;;;8.30;;
65323;SDS011;51937;48.364;11.378;2022-08-20T01:36:55;11.27;;;8.25;;
65323;SDS011;51937;48.364;11.378;2022-08-20T01:39:27;10.35;;;7.90;;
65323;SDS011;51937;48.364;11.378;2022-08-20T01:44:37;10.48;;;7.82;;
65323;SDS011;51937;48.364;11.378;2022-08-20T01:47:10;9.20;;;7.53;;
65323;SDS011;51937;48.364;11.378;2022-08-20T01:49:40;10.48;;;8.18;;
65323;SDS011;51937;48.364;11.378;2022-08-20T01:52:10;10.35;;;7.78;;
65323;SDS011;51937;48.364;11.378;2022-08-20T01:54:41;14.07;;;9.10;;
65323;SDS011;51937;48.364;11.378;2022-08-20T01:57:14;14.20;;;9.30;;
65323;SDS011;51937;48.364;11.378;2022-08-20T01:59:42;12.50;;;9.00;;
65323;SDS011;51937;48.364;11.378;2022-08-20T02:02:08;12.52;;;9.27;;
65323;SDS011;51937;48.364;11.378;2022-08-20T02:04:35;13.85;;;9.45;;
65323;SDS011;51937;48.364;11.378;2022-08-20T02:07:02;15.55;;;10.10;;
65323;SDS011;51937;48.364;11.378;2022-08-20T02:09:34;12.43;;;9.45;;
65323;SDS011;51937;48.364;11.378;2022-08-20T02:12:02;14.48;;;9.35;;
65323;SDS011;51937;48.364;11.378;2022-08-20T02:14:29;12.25;;;9.32;;
65323;SDS011;51937;48.364;11.378;2022-08-20T02:16:55;11.90;;;9.00;;
65323;SDS011;51937;48.364;11.378;2022-08-20T02:19:28;11.25;;;8.48;;
65323;SDS011;51937;48.364;11.378;2022-08-20T02:22:35;11.90;;;8.25;;
65323;SDS011;51937;48.364;11.378;2022-08-20T02:25:06;11.93;;;8.63;;
65323;SDS011;51937;48.364;11.378;2022-08-20T02:27:34;11.32;;;8.65;;
65323;SDS011;51937;48.364;11.378;2022-08-20T02:30:01;11.77;;;8.55;;
65323;SDS011;51937;48.364;11.378;2022-08-20T02:32:32;10.88;;;8.07;;
65323;SDS011;51937;48.364;11.378;2022-08-20T02:34:58;14.18;;;9.13;;
65323;SDS011;51937;48.364;11.378;2022-08-20T02:37:23;13.05;;;8.95;;
65323;SDS011;51937;48.364;11.378;2022-08-20T02:39:48;12.00;;;9.00;;
65323;SDS011;51937;48.364;11.378;2022-08-20T02:42:14;12.95;;;9.30;;
65323;SDS011;51937;48.364;11.378;2022-08-20T02:44:39;14.10;;;9.63;;
65323;SDS011;51937;48.364;11.378;2022-08-20T02:47:05;12.23;;;9.55;;
65323;SDS011;51937;48.364;11.378;2022-08-20T02:49:31;12.82;;;9.65;;
65323;SDS011;51937;48.364;11.378;2022-08-20T02:51:57;10.40;;;8.52;;
65323;SDS011;51937;48.364;11.378;2022-08-20T02:54:22;12.15;;;9.32;;
65323;SDS011;51937;48.364;11.378;2022-08-20T02:56:48;13.05;;;8.85;;
65323;SDS011;51937;48.364;11.378;2022-08-20T02:59:14;10.60;;;7.95;;
65323;SDS011;51937;48.364;11.378;2022-08-20T03:01:39;10.20;;;7.85;;
65323;SDS011;51937;48.364;11.378;2022-08-20T03:04:04;10.70;;;8.68;;
65323;SDS011;51937;48.364;11.378;2022-08-20T03:06:30;11.57;;;8.25;;
65323;SDS011;51937;48.364;11.378;2022-08-20T03:08:56;14.23;;;8.32;;
65323;SDS011;51937;48.364;11.378;2022-08-20T03:11:21;10.25;;;8.25;;
65323;SDS011;51937;48.364;11.378;2022-08-20T03:13:46;15.63;;;10.82;;
65323;SDS011;51937;48.364;11.378;2022-08-20T03:16:12;12.48;;;9.13;;
65323;SDS011;51937;48.364;11.378;2022-08-20T03:18:39;13.75;;;7.80;;
65323;SDS011;51937;48.364;11.378;2022-08-20T03:21:07;12.13;;;8.35;;
65323;SDS011;51937;48.364;11.378;2022-08-20T03:23:34;10.27;;;8.25;;
65323;SDS011;51937;48.364;11.378;2022-08-20T03:26:01;10.88;;;8.27;;
65323;SDS011;51937;48.364;11.378;2022-08-20T03:28:27;9.48;;;6.45;;
65323;SDS011;51937;48.364;11.378;2022-08-20T03:30:53;11.95;;;8.30;;
65323;SDS011;51937;48.364;11.378;2022-08-20T03:33:20;12.23;;;8.98;;
65323;SDS011;51937;48.364;11.378;2022-08-20T03:35:46;10.52;;;8.30;;
65323;SDS011;51937;48.364;11.378;2022-08-20T03:38:13;15.05;;;8.90;;
65323;SDS011;51937;48.364;11.378;2022-08-20T03:40:41;11.05;;;8.18;;
65323;SDS011;51937;48.364;11.378;2022-08-20T03:43:07;10.77;;;7.88;;
65323;SDS011;51937;48.364;11.378;2022-08-20T03:45:34;16.30;;;8.57;;
65323;SDS011;51937;48.364;11.378;2022-08-20T03:48:01;11.57;;;8.73;;
65323;SDS011;51937;48.364;11.378;2022-08-20T03:50:29;11.00;;;7.95;;
65323;SDS011;51937;48.364;11.378;2022-08-20T03:52:56;10.55;;;8.30;;
65323;SDS011;51937;48.364;11.378;2022-08-20T03:55:22;9.15;;;7.47;;
65323;SDS011;51937;48.364;11.378;2022-08-20T03:57:50;9.45;;;7.15;;
65323;SDS011;51937;48.364;11.378;2022-08-20T04:00:19;9.10;;;7.18;;
65323;SDS011;51937;48.364;11.378;2022-08-20T04:02:47;8.63;;;7.15;;
65323;SDS011;51937;48.364;11.378;2022-08-20T04:05:13;10.60;;;7.00;;
65323;SDS011;51937;48.364;11.378;2022-08-20T04:07:38;11.15;;;7.40;;
65323;SDS011;51937;48.364;11.378;2022-08-20T04:10:05;9.48;;;7.90;;
65323;SDS011;51937;48.364;11.378;2022-08-20T04:12:33;8.48;;;7.35;;
65323;SDS011;51937;48.364;11.378;2022-08-20T04:15:01;10.05;;;7.30;;
65323;SDS011;51937;48.364;11.378;2022-08-20T04:17:26;12.70;;;7.30;;
65323;SDS011;51937;48.364;11.378;2022-08-20T04:19:52;9.35;;;6.47;;
65323;SDS011;51937;48.364;11.378;2022-08-20T04:22:17;12.80;;;7.88;;
65323;SDS011;51937;48.364;11.378;2022-08-20T04:24:42;10.98;;;7.65;;
65323;SDS011;51937;48.364;11.378;2022-08-20T04:27:08;9.75;;;7.47;;
65323;SDS011;51937;48.364;11.378;2022-08-20T04:29:35;9.55;;;7.70;;
65323;SDS011;51937;48.364;11.378;2022-08-20T04:32:04;9.57;;;7.03;;
65323;SDS011;51937;48.364;11.378;2022-08-20T04:34:30;10.07;;;7.75;;
65323;SDS011;51937;48.364;11.378;2022-08-20T04:36:55;9.57;;;7.32;;
65323;SDS011;51937;48.364;11.378;2022-08-20T04:39:21;10.30;;;7.43;;
65323;SDS011;51937;48.364;11.378;2022-08-20T04:41:46;8.75;;;7.40;;
65323;SDS011;51937;48.364;11.378;2022-08-20T04:44:12;12.27;;;7.65;;
65323;SDS011;51937;48.364;11.378;2022-08-20T04:46:37;10.88;;;6.93;;
65323;SDS011;51937;48.364;11.378;2022-08-20T04:49:03;9.30;;;7.22;;
65323;SDS011;51937;48.364;11.378;2022-08-20T04:51:30;9.35;;;6.93;;
65323;SDS011;51937;48.364;11.378;2022-08-20T04:53:56;9.82;;;7.15;;
65323;SDS011;51937;48.364;11.378;2022-08-20T04:56:27;9.73;;;7.10;;
65323;SDS011;51937;48.364;11.378;2022-08-20T04:58:56;10.52;;;7.25;;
65323;SDS011;51937;48.364;11.378;2022-08-20T05:01:23;7.93;;;6.45;;
65323;SDS011;51937;48.364;11.378;2022-08-20T05:03:50;8.23;;;6.60;;
65323;SDS011;51937;48.364;11.378;2022-08-20T05:06:18;8.93;;;7.00;;
65323;SDS011;51937;48.364;11.378;2022-08-20T05:08:45;8.57;;;6.68;;
65323;SDS011;51937;48.364;11.378;2022-08-20T05:11:10;8.85;;;6.15;;
65323;SDS011;51937;48.364;11.378;2022-08-20T05:13:36;11.65;;;7.60;;
65323;SDS011;51937;48.364;11.378;2022-08-20T05:16:01;9.18;;;6.55;;
65323;SDS011;51937;48.364;11.378;2022-08-20T05:18:29;8.82;;;6.65;;
65323;SDS011;51937;48.364;11.378;2022-08-20T05:20:57;8.15;;;6.07;;
65323;SDS011;51937;48.364;11.378;2022-08-20T05:23:28;9.88;;;7.00;;
65323;SDS011;51937;48.364;11.378;2022-08-20T05:25:53;8.30;;;6.65;;
65323;SDS011;51937;48.364;11.378;2022-08-20T05:28:22;10.57;;;7.07;;
65323;SDS011;51937;48.364;11.378;2022-08-20T05:30:50;9.25;;;6.50;;
65323;SDS011;51937;48.364;11.378;2022-08-20T05:33:16;9.18;;;6.35;;
65323;SDS011;51937;48.364;11.378;2022-08-20T05:35:44;7.88;;;6.47;;
65323;SDS011;51937;48.364;11.378;2022-08-20T05:38:12;7.95;;;5.88;;
65323;SDS011;51937;48.364;11.378;2022-08-20T05:40:40;9.32;;;6.80;;
65323;SDS011;51937;48.364;11.378;2022-08-20T05:43:06;9.68;;;6.43;;
65323;SDS011;51937;48.364;11.378;2022-08-20T05:45:32;7.97;;;6.20;;
65323;SDS011;51937;48.364;11.378;2022-08-20T05:48:07;6.75;;;5.68;;
65323;SDS011;51937;48.364;11.378;2022-08-20T05:50:35;8.68;;;6.57;;
65323;SDS011;51937;48.364;11.378;2022-08-20T05:53:02;7.97;;;6.10;;
65323;SDS011;51937;48.364;11.378;2022-08-20T05:55:27;8.35;;;6.50;;
65323;SDS011;51937;48.364;11.378;2022-08-20T05:57:59;7.60;;;5.97;;
65323;SDS011;51937;48.364;11.378;2022-08-20T06:00:26;11.85;;;6.65;;
65323;SDS011;51937;48.364;11.378;2022-08-20T06:02:53;8.45;;;5.70;;
65323;SDS011;51937;48.364;11.378;2022-08-20T06:05:37;7.88;;;6.00;;
65323;SDS011;51937;48.364;11.378;2022-08-20T06:08:03;7.47;;;5.50;;
65323;SDS011;51937;48.364;11.378;2022-08-20T06:10:29;8.90;;;5.70;;
65323;SDS011;51937;48.364;11.378;2022-08-20T06:12:55;7.68;;;6.00;;
65323;SDS011;51937;48.364;11.378;2022-08-20T06:15:20;7.60;;;5.38;;
65323;SDS011;51937;48.364;11.378;2022-08-20T06:17:46;7.75;;;5.88;;
65323;SDS011;51937;48.364;11.378;2022-08-20T06:20:11;7.60;;;5.55;;
65323;SDS011;51937;48.364;11.378;2022-08-20T06:22:37;6.32;;;5.07;;
65323;SDS011;51937;48.364;11.378;2022-08-20T06:25:03;6.95;;;5.38;;
65323;SDS011;51937;48.364;11.378;2022-08-20T06:27:29;6.45;;;5.32;;
65323;SDS011;51937;48.364;11.378;2022-08-20T06:29:55;7.55;;;5.60;;
65323;SDS011;51937;48.364;11.378;2022-08-20T06:32:21;7.13;;;5.80;;
65323;SDS011;51937;48.364;11.378;2022-08-20T06:34:48;6.32;;;5.10;;
65323;SDS011;51937;48.364;11.378;2022-08-20T06:37:25;5.43;;;4.82;;
65323;SDS011;51937;48.364;11.378;2022-08-20T06:39:51;6.80;;;5.20;;
65323;SDS011;51937;48.364;11.378;2022-08-20T06:42:17;6.93;;;5.10;;
65323;SDS011;51937;48.364;11.378;2022-08-20T06:44:44;9.00;;;4.63;;
65323;SDS011;51937;48.364;11.378;2022-08-20T06:47:14;8.48;;;4.47;;
65323;SDS011;51937;48.364;11.378;2022-08-20T06:49:41;10.27;;;4.90;;
65323;SDS011;51937;48.364;11.378;2022-08-20T06:52:07;6.15;;;4.75;;
65323;SDS011;51937;48.364;11.378;2022-08-20T06:54:32;9.10;;;4.88;;
65323;SDS011;51937;48.364;11.378;2022-08-20T06:57:03;9.88;;;5.32;;
65323;SDS011;51937;48.364;11.378;2022-08-20T06:59:45;7.53;;;4.22;;
65323;SDS011;51937;48.364;11.378;2022-08-20T07:02:12;8.27;;;5.22;;
65323;SDS011;51937;48.364;11.378;2022-08-20T07:04:38;7.05;;;4.88;;
65323;SDS011;51937;48.364;11.378;2022-08-20T07:07:05;6.95;;;4.82;;
65323;SDS011;51937;48.364;11.378;2022-08-20T07:12:08;6.40;;;4.28;;
65323;SDS011;51937;48.364;11.378;2022-08-20T07:14:35;6.30;;;4.80;;
65323;SDS011;51937;48.364;11.378;2022-08-20T07:17:06;7.13;;;4.60;;
65323;SDS011;51937;48.364;11.378;2022-08-20T07:19:32;5.20;;;4.32;;
65323;SDS011;51937;48.364;11.378;2022-08-20T07:21:57;7.07;;;4.97;;
65323;SDS011;51937;48.364;11.378;2022-08-20T07:24:23;8.63;;;4.82;;
65323;SDS011;51937;48.364;11.378;2022-08-20T07:26:49;7.38;;;5.03;;
65323;SDS011;51937;48.364;11.378;2022-08-20T07:29:16;5.65;;;4.30;;
65323;SDS011;51937;48.364;11.378;2022-08-20T07:31:42;5.95;;;4.38;;
65323;SDS011;51937;48.364;11.378;2022-08-20T07:34:26;7.13;;;4.38;;
65323;SDS011;51937;48.364;11.378;2022-08-20T07:36:52;4.93;;;4.10;;
65323;SDS011;51937;48.364;11.378;2022-08-20T07:39:17;6.22;;;4.70;;
65323;SDS011;51937;48.364;11.378;2022-08-20T07:41:45;6.28;;;4.28;;
65323;SDS011;51937;48.364;11.378;2022-08-20T07:44:26;7.63;;;4.15;;
65323;SDS011;51937;48.364;11.378;2022-08-20T07:46:52;5.68;;;4.20;;
65323;SDS011;51937;48.364;11.378;2022-08-20T07:49:17;5.40;;;4.18;;
65323;SDS011;51937;48.364;11.378;2022-08-20T07:51:43;4.88;;;3.80;;
65323;SDS011;51937;48.364;11.378;2022-08-20T07:54:08;4.82;;;4.25;;
65323;SDS011;51937;48.364;11.378;2022-08-20T07:56:34;4.28;;;3.85;;
65323;SDS011;51937;48.364;11.378;2022-08-20T07:58:59;5.32;;;4.20;;
65323;SDS011;51937;48.364;11.378;2022-08-20T08:01:27;6.30;;;3.72;;
65323;SDS011;51937;48.364;11.378;2022-08-20T08:03:54;5.13;;;4.10;;
65323;SDS011;51937;48.364;11.378;2022-08-20T08:06:21;4.68;;;4.18;;
65323;SDS011;51937;48.364;11.378;2022-08-20T08:08:48;5.40;;;4.30;;
65323;SDS011;51937;48.364;11.378;2022-08-20T08:11:14;5.70;;;3.95;;
65323;SDS011;51937;48.364;11.378;2022-08-20T08:13:40;6.45;;;4.10;;
65323;SDS011;51937;48.364;11.378;2022-08-20T08:16:07;5.03;;;3.83;;
65323;SDS011;51937;48.364;11.378;2022-08-20T08:18:35;4.82;;;3.90;;
65323;SDS011;51937;48.364;11.378;2022-08-20T08:21:14;4.30;;;3.47;;
65323;SDS011;51937;48.364;11.378;2022-08-20T08:23:40;4.95;;;3.78;;
65323;SDS011;51937;48.364;11.378;2022-08-20T08:26:08;4.93;;;3.90;;
65323;SDS011;51937;48.364;11.378;2022-08-20T08:28:34;9.52;;;4.18;;
65323;SDS011;51937;48.364;11.378;2022-08-20T08:31:01;5.80;;;3.72;;
65323;SDS011;51937;48.364;11.378;2022-08-20T08:33:27;3.75;;;3.40;;
65323;SDS011;51937;48.364;11.378;2022-08-20T08:38:29;3.63;;;3.20;;
65323;SDS011;51937;48.364;11.378;2022-08-20T08:41:02;6.35;;;3.50;;
65323;SDS011;51937;48.364;11.378;2022-08-20T08:43:36;4.30;;;3.72;;
65323;SDS011;51937;48.364;11.378;2022-08-20T08:46:05;3.90;;;3.15;;
65323;SDS011;51937;48.364;11.378;2022-08-20T08:48:36;5.13;;;3.78;;
65323;SDS011;51937;48.364;11.378;2022-08-20T08:51:10;4.47;;;3.95;;
65323;SDS011;51937;48.364;11.378;2022-08-20T08:53:41;4.93;;;3.50;;
65323;SDS011;51937;48.364;11.378;2022-08-20T08:56:10;4.13;;;3.60;;
65323;SDS011;51937;48.364;11.378;2022-08-20T08:58:38;4.60;;;3.60;;
65323;SDS011;51937;48.364;11.378;2022-08-20T09:01:11;4.05;;;3.63;;
65323;SDS011;51937;48.364;11.378;2022-08-20T09:06:09;4.05;;;3.65;;
65323;SDS011;51937;48.364;11.378;2022-08-20T09:08:42;7.00;;;4.22;;
65323;SDS011;51937;48.364;11.378;2022-08-20T09:11:12;5.43;;;3.85;;
65323;SDS011;51937;48.364;11.378;2022-08-20T09:13:38;3.60;;;3.30;;
65323;SDS011;51937;48.364;11.378;2022-08-20T09:16:07;4.97;;;3.58;;
65323;SDS011;51937;48.364;11.378;2022-08-20T09:18:33;4.30;;;3.78;;
65323;SDS011;51937;48.364;11.378;2022-08-20T09:20:59;5.65;;;3.90;;
65323;SDS011;51937;48.364;11.378;2022-08-20T09:23:25;5.45;;;4.20;;
65323;SDS011;51937;48.364;11.378;2022-08-20T09:25:51;4.32;;;3.72;;
65323;SDS011;51937;48.364;11.378;2022-08-20T09:28:19;8.25;;;4.03;;
65323;SDS011;51937;48.364;11.378;2022-08-20T09:30:44;4.10;;;3.70;;
65323;SDS011;51937;48.364;11.378;2022-08-20T09:33:10;5.93;;;3.97;;
65323;SDS011;51937;48.364;11.378;2022-08-20T09:35:36;3.47;;;3.17;;
65323;SDS011;51937;48.364;11.378;2022-08-20T09:38:04;4.57;;;4.18;;
65323;SDS011;51937;48.364;11.378;2022-08-20T09:40:30;5.00;;;4.20;;
65323;SDS011;51937;48.364;11.378;2022-08-20T09:42:55;5.20;;;4.13;;
65323;SDS011;51937;48.364;11.378;2022-08-20T09:45:22;4.53;;;4.05;;
65323;SDS011;51937;48.364;11.378;2022-08-20T09:48:08;4.30;;;3.50;;
65323;SDS011;51937;48.364;11.378;2022-08-20T09:50:34;5.35;;;2.97;;
65323;SDS011;51937;48.364;11.378;2022-08-20T09:53:01;4.40;;;3.58;;
65323;SDS011;51937;48.364;11.378;2022-08-20T09:58:04;4.68;;;3.85;;
65323;SDS011;51937;48.364;11.378;2022-08-20T10:00:33;5.95;;;3.65;;
65323;SDS011;51937;48.364;11.378;2022-08-20T10:02:58;5.05;;;3.90;;
65323;SDS011;51937;48.364;11.378;2022-08-20T10:05:25;5.00;;;3.63;;
65323;SDS011;51937;48.364;11.378;2022-08-20T10:07:51;7.03;;;3.88;;
65323;SDS011;51937;48.364;11.378;2022-08-20T10:10:16;4.85;;;3.83;;
65323;SDS011;51937;48.364;11.378;2022-08-20T10:12:42;5.05;;;4.35;;
65323;SDS011;51937;48.364;11.378;2022-08-20T10:15:08;5.45;;;3.90;;
65323;SDS011;51937;48.364;11.378;2022-08-20T10:17:40;6.78;;;4.20;;
65323;SDS011;51937;48.364;11.378;2022-08-20T10:20:07;3.83;;;3.30;;
65323;SDS011;51937;48.364;11.378;2022-08-20T10:22:34;4.47;;;3.72;;
65323;SDS011;51937;48.364;11.378;2022-08-20T10:25:00;5.93;;;3.95;;
65323;SDS011;51937;48.364;11.378;2022-08-20T10:27:26;4.22;;;3.55;;
65323;SDS011;51937;48.364;11.378;2022-08-20T10:29:52;4.78;;;3.53;;
65323;SDS011;51937;48.364;11.378;2022-08-20T10:32:17;5.63;;;3.58;;
65323;SDS011;51937;48.364;11.378;2022-08-20T10:34:43;6.28;;;3.40;;
65323;SDS011;51937;48.364;11.378;2022-08-20T10:37:15;4.20;;;3.55;;
65323;SDS011;51937;48.364;11.378;2022-08-20T10:39:51;7.53;;;4.22;;
65323;SDS011;51937;48.364;11.378;2022-08-20T10:42:17;4.00;;;3.40;;
65323;SDS011;51937;48.364;11.378;2022-08-20T10:44:43;4.38;;;3.80;;
65323;SDS011;51937;48.364;11.378;2022-08-20T10:47:13;5.47;;;3.65;;
65323;SDS011;51937;48.364;11.378;2022-08-20T10:49:41;4.25;;;3.80;;
65323;SDS011;51937;48.364;11.378;2022-08-20T10:52:06;4.15;;;3.33;;
65323;SDS011;51937;48.364;11.378;2022-08-20T10:54:31;5.18;;;3.80;;
65323;SDS011;51937;48.364;11.378;2022-08-20T10:57:00;3.40;;;3.08;;
65323;SDS011;51937;48.364;11.378;2022-08-20T10:59:29;4.18;;;3.58;;
65323;SDS011;51937;48.364;11.378;2022-08-20T11:01:55;3.72;;;3.33;;
65323;SDS011;51937;48.364;11.378;2022-08-20T11:04:20;3.97;;;3.38;;
65323;SDS011;51937;48.364;11.378;2022-08-20T11:06:46;5.07;;;3.85;;
65323;SDS011;51937;48.364;11.378;2022-08-20T11:09:11;5.63;;;3.40;;
65323;SDS011;51937;48.364;11.378;2022-08-20T11:11:37;5.10;;;2.97;;
65323;SDS011;51937;48.364;11.378;2022-08-20T11:14:02;4.30;;;3.13;;
65323;SDS011;51937;48.364;11.378;2022-08-20T11:16:28;5.75;;;3.60;;
65323;SDS011;51937;48.364;11.378;2022-08-20T11:18:54;3.78;;;3.25;;
65323;SDS011;51937;48.364;11.378;2022-08-20T11:21:19;4.38;;;3.10;;
65323;SDS011;51937;48.364;11.378;2022-08-20T11:23:44;6.40;;;3.95;;
65323;SDS011;51937;48.364;11.378;2022-08-20T11:26:12;6.57;;;3.47;;
65323;SDS011;51937;48.364;11.378;2022-08-20T11:28:45;8.00;;;5.20;;
65323;SDS011;51937;48.364;11.378;2022-08-20T11:31:10;18.13;;;9.32;;
65323;SDS011;51937;48.364;11.378;2022-08-20T11:33:36;6.72;;;5.78;;
65323;SDS011;51937;48.364;11.378;2022-08-20T11:36:01;5.85;;;4.90;;
65323;SDS011;51937;48.364;11.378;2022-08-20T11:38:26;5.35;;;4.50;;
65323;SDS011;51937;48.364;11.378;2022-08-20T11:40:52;5.95;;;4.50;;
65323;SDS011;51937;48.364;11.378;2022-08-20T11:43:17;5.20;;;3.70;;
65323;SDS011;51937;48.364;11.378;2022-08-20T11:45:43;4.53;;;3.80;;
65323;SDS011;51937;48.364;11.378;2022-08-20T11:48:11;4.10;;;3.50;;
65323;SDS011;51937;48.364;11.378;2022-08-20T11:50:37;5.30;;;4.18;;
65323;SDS011;51937;48.364;11.378;2022-08-20T11:53:02;5.13;;;3.63;;
65323;SDS011;51937;48.364;11.378;2022-08-20T11:55:28;5.70;;;3.70;;
65323;SDS011;51937;48.364;11.378;2022-08-20T11:57:53;4.28;;;3.88;;
65323;SDS011;51937;48.364;11.378;2022-08-20T12:00:20;4.90;;;3.88;;
65323;SDS011;51937;48.364;11.378;2022-08-20T12:02:48;5.00;;;3.72;;
65323;SDS011;51937;48.364;11.378;2022-08-20T12:05:17;7.43;;;3.95;;
65323;SDS011;51937;48.364;11.378;2022-08-20T12:07:44;4.63;;;3.90;;
65323;SDS011;51937;48.364;11.378;2022-08-20T12:10:10;4.35;;;3.80;;
65323;SDS011;51937;48.364;11.378;2022-08-20T12:12:36;5.03;;;3.50;;
65323;SDS011;51937;48.364;11.378;2022-08-20T12:15:03;6.28;;;4.28;;
65323;SDS011;51937;48.364;11.378;2022-08-20T12:17:30;4.53;;;3.63;;
65323;SDS011;51937;48.364;11.378;2022-08-20T12:19:57;4.60;;;3.67;;
65323;SDS011;51937;48.364;11.378;2022-08-20T12:22:24;4.03;;;3.53;;
65323;SDS011;51937;48.364;11.378;2022-08-20T12:24:50;3.92;;;3.13;;
65323;SDS011;51937;48.364;11.378;2022-08-20T12:29:45;3.45;;;3.08;;
65323;SDS011;51937;48.364;11.378;2022-08-20T12:32:12;5.70;;;3.13;;
65323;SDS011;51937;48.364;11.378;2022-08-20T12:34:39;4.35;;;3.42;;
65323;SDS011;51937;48.364;11.378;2022-08-20T12:37:08;6.07;;;4.18;;
65323;SDS011;51937;48.364;11.378;2022-08-20T12:39:36;4.15;;;3.47;;
65323;SDS011;51937;48.364;11.378;2022-08-20T12:42:03;4.30;;;3.55;;
65323;SDS011;51937;48.364;11.378;2022-08-20T12:44:29;3.88;;;3.35;;
65323;SDS011;51937;48.364;11.378;2022-08-20T12:50:00;4.78;;;3.55;;
65323;SDS011;51937;48.364;11.378;2022-08-20T12:52:30;5.35;;;3.10;;
65323;SDS011;51937;48.364;11.378;2022-08-20T12:54:57;5.57;;;3.50;;
65323;SDS011;51937;48.364;11.378;2022-08-20T12:59:53;5.22;;;3.33;;
65323;SDS011;51937;48.364;11.378;2022-08-20T13:02:20;5.88;;;2.90;;
65323;SDS011;51937;48.364;11.378;2022-08-20T13:04:45;6.13;;;2.85;;
65323;SDS011;51937;48.364;11.378;2022-08-20T13:07:11;3.47;;;2.97;;
65323;SDS011;51937;48.364;11.378;2022-08-20T13:09:38;2.80;;;2.60;;
65323;SDS011;51937;48.364;11.378;2022-08-20T13:12:04;2.83;;;2.58;;
65323;SDS011;51937;48.364;11.378;2022-08-20T13:14:29;2.97;;;2.67;;
65323;SDS011;51937;48.364;11.378;2022-08-20T13:16:55;6.05;;;2.88;;
65323;SDS011;51937;48.364;11.378;2022-08-20T13:19:22;3.33;;;2.42;;
65323;SDS011;51937;48.364;11.378;2022-08-20T13:21:48;2.40;;;2.20;;
65323;SDS011;51937;48.364;11.378;2022-08-20T13:24:13;2.63;;;2.42;;
65323;SDS011;51937;48.364;11.378;2022-08-20T13:26:39;3.28;;;2.63;;
65323;SDS011;51937;48.364;11.378;2022-08-20T13:29:04;2.83;;;2.58;;
65323;SDS011;51937;48.364;11.378;2022-08-20T13:31:29;3.10;;;2.45;;
65323;SDS011;51937;48.364;11.378;2022-08-20T13:33:55;2.72;;;2.28;;
65323;SDS011;51937;48.364;11.378;2022-08-20T13:36:20;2.25;;;1.95;;
65323;SDS011;51937;48.364;11.378;2022-08-20T13:38:46;3.45;;;2.67;;
65323;SDS011;51937;48.364;11.378;2022-08-20T13:41:11;2.78;;;2.53;;
65323;SDS011;51937;48.364;11.378;2022-08-20T13:43:36;2.55;;;2.33;;
65323;SDS011;51937;48.364;11.378;2022-08-20T13:46:02;3.95;;;2.50;;
65323;SDS011;51937;48.364;11.378;2022-08-20T13:48:28;2.70;;;2.50;;
65323;SDS011;51937;48.364;11.378;2022-08-20T13:50:54;3.25;;;2.25;;
65323;SDS011;51937;48.364;11.378;2022-08-20T13:53:19;5.03;;;2.28;;
65323;SDS011;51937;48.364;11.378;2022-08-20T13:55:44;2.63;;;2.35;;
65323;SDS011;51937;48.364;11.378;2022-08-20T13:58:10;3.70;;;2.47;;
65323;SDS011;51937;48.364;11.378;2022-08-20T14:00:35;3.03;;;2.65;;
65323;SDS011;51937;48.364;11.378;2022-08-20T14:03:02;2.25;;;1.90;;
65323;SDS011;51937;48.364;11.378;2022-08-20T14:05:29;2.67;;;2.10;;
65323;SDS011;51937;48.364;11.378;2022-08-20T14:08:02;4.15;;;2.70;;
65323;SDS011;51937;48.364;11.378;2022-08-20T14:10:29;3.03;;;2.55;;
65323;SDS011;51937;48.364;11.378;2022-08-20T14:12:56;3.17;;;2.50;;
65323;SDS011;51937;48.364;11.378;2022-08-20T14:15:23;3.17;;;2.47;;
65323;SDS011;51937;48.364;11.378;2022-08-20T14:17:49;2.67;;;2.13;;
65323;SDS011;51937;48.364;11.378;2022-08-20T14:20:20;5.32;;;2.58;;
65323;SDS011;51937;48.364;11.378;2022-08-20T14:22:47;3.42;;;2.13;;
65323;SDS011;51937;48.364;11.378;2022-08-20T14:25:13;1.73;;;1.60;;
65323;SDS011;51937;48.364;11.378;2022-08-20T14:27:41;5.10;;;1.40;;
65323;SDS011;51937;48.364;11.378;2022-08-20T14:30:13;5.28;;;1.33;;
65323;SDS011;51937;48.364;11.378;2022-08-20T14:32:41;6.05;;;0.68;;
65323;SDS011;51937;48.364;11.378;2022-08-20T14:35:07;4.57;;;0.80;;
65323;SDS011;51937;48.364;11.378;2022-08-20T14:37:34;3.55;;;0.70;;
65323;SDS011;51937;48.364;11.378;2022-08-20T14:40:05;1.17;;;0.30;;
65323;SDS011;51937;48.364;11.378;2022-08-20T14:42:33;7.93;;;0.60;;
65323;SDS011;51937;48.364;11.378;2022-08-20T14:45:05;1.05;;;0.30;;
65323;SDS011;51937;48.364;11.378;2022-08-20T14:47:41;1.00;;;0.57;;
65323;SDS011;51937;48.364;11.378;2022-08-20T14:50:19;1.08;;;0.70;;
65323;SDS011;51937;48.364;11.378;2022-08-20T14:52:49;0.65;;;0.40;;